Time;durP1;ratioP1;P1;durP2;ratioP2;P2;SDS_P1;SDS_P2;PMS_P1;PMS_P2;Temp;Humidity;BMP_temperature;BMP_pressure;BME280_temperature;BME280_humidity;BME280_pressure;Samples;Min_cycle;Max_cycle;Signal;HPM_P1;HPM_P2
2023/04/20 00:01:46;;;;;;;1.92;0.70;;;8.30;99.90;;;;;;5059746;28;20055;-42
2023/04/20 00:04:14;;;;;;;2.83;0.57;;;8.40;99.90;;;;;;5059556;28;20605;-42
2023/04/20 00:06:41;;;;;;;1.17;0.50;;;8.40;99.90;;;;;;5076127;28;20364;-42
2023/04/20 00:09:07;;;;;;;1.98;0.60;;;8.40;99.90;;;;;;5059279;28;20044;-42
2023/04/20 00:11:33;;;;;;;1.80;0.60;;;8.40;99.90;;;;;;5042514;28;20055;-42
2023/04/20 00:13:58;;;;;;;2.57;0.70;;;8.40;99.90;;;;;;5075995;28;20052;-42
2023/04/20 00:16:24;;;;;;;1.07;0.60;;;8.40;99.90;;;;;;5059317;28;20078;-42
2023/04/20 00:18:50;;;;;;;4.60;1.00;;;8.30;99.90;;;;;;5075921;28;20044;-42
2023/04/20 00:21:16;;;;;;;1.80;0.60;;;8.30;99.90;;;;;;5075777;28;20178;-43
2023/04/20 00:23:41;;;;;;;2.20;0.90;;;8.40;99.90;;;;;;5075990;28;20131;-42
2023/04/20 00:26:07;;;;;;;3.90;0.90;;;8.30;99.90;;;;;;5059086;28;20498;-43
2023/04/20 00:28:33;;;;;;;1.70;0.80;;;8.30;99.90;;;;;;5092686;28;20040;-42
2023/04/20 00:30:58;;;;;;;2.77;0.60;;;8.30;99.90;;;;;;5075665;28;20091;-42
2023/04/20 00:33:24;;;;;;;2.50;0.57;;;8.30;99.90;;;;;;5075506;28;20475;-42
2023/04/20 00:35:50;;;;;;;2.20;0.80;;;8.30;99.90;;;;;;5075276;28;20098;-43
2023/04/20 00:38:15;;;;;;;3.00;0.80;;;8.30;99.90;;;;;;5042267;28;20490;-42
2023/04/20 00:40:47;;;;;;;3.03;0.63;;;8.30;99.90;;;;;;5075376;28;20045;-42
2023/04/20 00:43:14;;;;;;;2.58;0.80;;;8.30;99.90;;;;;;5059780;28;20403;-42
2023/04/20 00:45:39;;;;;;;3.55;0.70;;;8.30;99.90;;;;;;5075220;28;20369;-42
2023/04/20 00:48:06;;;;;;;3.43;0.70;;;8.30;99.90;;;;;;5058710;28;20055;-42
2023/04/20 00:50:33;;;;;;;2.88;0.68;;;8.30;99.90;;;;;;5075036;28;20294;-43
2023/04/20 00:53:00;;;;;;;2.30;0.95;;;8.30;99.90;;;;;;5074709;28;20415;-43
2023/04/20 00:55:27;;;;;;;3.72;0.70;;;8.30;99.90;;;;;;5058449;28;20040;-42
2023/04/20 00:57:52;;;;;;;1.80;0.85;;;8.30;99.90;;;;;;5075011;28;20053;-42
2023/04/20 01:00:19;;;;;;;3.30;1.07;;;8.30;99.90;;;;;;5075201;28;20140;-42
2023/04/20 01:02:44;;;;;;;1.77;0.77;;;8.30;99.90;;;;;;5058699;28;20041;-42
2023/04/20 01:05:10;;;;;;;3.20;0.87;;;8.30;99.90;;;;;;5058658;28;20048;-42
2023/04/20 01:07:36;;;;;;;2.73;0.80;;;8.30;99.90;;;;;;5074833;28;20041;-42
2023/04/20 01:10:03;;;;;;;2.07;0.63;;;8.30;99.90;;;;;;5058132;28;20080;-42
2023/04/20 01:12:28;;;;;;;2.72;0.80;;;8.30;99.90;;;;;;5058116;28;20044;-42
2023/04/20 01:14:54;;;;;;;1.50;0.60;;;8.30;99.90;;;;;;5058289;28;20041;-42
2023/04/20 01:17:21;;;;;;;2.50;0.70;;;8.20;99.90;;;;;;5041564;28;20052;-42
2023/04/20 01:19:47;;;;;;;2.72;0.60;;;8.30;99.90;;;;;;5074756;28;20458;-42
2023/04/20 01:22:17;;;;;;;;;;;8.20;99.90;;;;;;5074781;28;20052;-42
2023/04/20 01:24:43;;;;;;;2.35;0.80;;;8.30;99.90;;;;;;5041459;28;19982;-42
2023/04/20 01:27:08;;;;;;;3.20;0.80;;;8.20;99.90;;;;;;5075795;28;20080;-42
2023/04/20 01:29:34;;;;;;;5.37;0.80;;;8.20;99.90;;;;;;5058125;28;20052;-42
2023/04/20 01:32:00;;;;;;;1.70;0.57;;;8.20;99.90;;;;;;5057943;28;20064;-42
2023/04/20 01:34:26;;;;;;;2.80;0.70;;;8.20;99.90;;;;;;5074278;28;20056;-42
2023/04/20 01:36:52;;;;;;;3.30;0.93;;;8.20;99.90;;;;;;5057373;28;20091;-42
2023/04/20 01:39:17;;;;;;;2.63;0.67;;;8.10;99.90;;;;;;5057961;28;20048;-41
2023/04/20 01:41:43;;;;;;;4.80;0.93;;;8.10;99.90;;;;;;5074382;28;20387;-44
2023/04/20 01:44:09;;;;;;;2.90;0.73;;;8.00;99.90;;;;;;5074244;28;20068;-42
2023/04/20 01:46:39;;;;;;;2.77;1.00;;;8.00;99.90;;;;;;5057448;28;20131;-42
2023/04/20 01:49:05;;;;;;;3.33;0.95;;;8.00;99.90;;;;;;5075053;28;20044;-42
2023/04/20 01:51:32;;;;;;;2.13;0.73;;;7.90;99.90;;;;;;5073902;28;20041;-42
2023/04/20 01:54:01;;;;;;;4.32;0.90;;;7.90;99.90;;;;;;5073864;28;20048;-42
2023/04/20 01:56:27;;;;;;;1.70;0.85;;;7.90;99.90;;;;;;5074120;28;20048;-42
2023/04/20 01:58:53;;;;;;;4.07;1.60;;;7.90;99.90;;;;;;5074071;28;20544;-42
2023/04/20 02:01:19;;;;;;;1.20;0.52;;;7.90;99.90;;;;;;5075042;28;20048;-42
2023/04/20 02:03:44;;;;;;;2.40;0.90;;;7.80;99.90;;;;;;5072985;28;20480;-42
2023/04/20 02:06:10;;;;;;;4.30;0.80;;;7.80;99.90;;;;;;5074820;28;20400;-42
2023/04/20 02:08:36;;;;;;;1.27;0.53;;;7.70;99.90;;;;;;5074472;28;20105;-42
2023/04/20 02:11:02;;;;;;;3.93;1.00;;;7.80;99.90;;;;;;5074780;28;20044;-43
2023/04/20 02:13:27;;;;;;;2.63;1.03;;;7.70;99.90;;;;;;5073469;28;20040;-42
2023/04/20 02:15:53;;;;;;;2.50;0.80;;;7.70;99.90;;;;;;5073822;28;20044;-42
2023/04/20 02:18:20;;;;;;;1.93;0.80;;;7.60;99.90;;;;;;5057128;28;20508;-42
2023/04/20 02:20:46;;;;;;;3.70;0.95;;;7.60;99.90;;;;;;5073411;28;20055;-42
2023/04/20 02:23:12;;;;;;;3.20;1.00;;;7.60;99.90;;;;;;5073681;28;20052;-42
2023/04/20 02:25:38;;;;;;;2.27;0.87;;;7.60;99.90;;;;;;5074505;28;20102;-42
2023/04/20 02:28:04;;;;;;;2.90;1.00;;;7.50;99.90;;;;;;5073620;28;20048;-42
2023/04/20 02:30:30;;;;;;;2.85;0.80;;;7.50;99.90;;;;;;5073402;28;20048;-42
2023/04/20 02:32:56;;;;;;;4.67;1.00;;;7.60;99.90;;;;;;5073198;28;20040;-42
2023/04/20 02:35:21;;;;;;;2.27;0.80;;;7.50;99.90;;;;;;5056344;28;20052;-42
2023/04/20 02:37:47;;;;;;;3.93;0.93;;;7.60;99.90;;;;;;5056629;28;20447;-42
2023/04/20 02:40:14;;;;;;;4.90;1.03;;;7.60;99.90;;;;;;5056701;28;20044;-42
2023/04/20 02:42:39;;;;;;;2.47;0.93;;;7.70;99.90;;;;;;5073015;28;20045;-42
2023/04/20 02:45:06;;;;;;;3.47;0.97;;;7.70;99.90;;;;;;5073278;28;20056;-42
2023/04/20 02:47:32;;;;;;;3.40;0.85;;;7.80;99.90;;;;;;5073005;28;20040;-42
2023/04/20 02:49:57;;;;;;;3.90;1.03;;;7.80;99.90;;;;;;5056270;28;20047;-42
2023/04/20 02:52:23;;;;;;;2.07;0.87;;;7.80;99.90;;;;;;5056425;28;20044;-42
2023/04/20 02:54:49;;;;;;;2.70;0.77;;;7.90;99.90;;;;;;5056358;28;20044;-42
2023/04/20 02:57:15;;;;;;;1.93;0.70;;;8.00;99.90;;;;;;5072848;28;20333;-42
2023/04/20 02:59:40;;;;;;;3.97;0.93;;;8.00;99.90;;;;;;5074174;28;20053;-42
2023/04/20 03:02:06;;;;;;;3.60;1.00;;;8.00;99.90;;;;;;5072976;28;20546;-42
2023/04/20 03:04:32;;;;;;;3.63;0.93;;;8.10;99.90;;;;;;5039545;28;20126;-42
2023/04/20 03:06:58;;;;;;;1.87;0.77;;;8.10;99.90;;;;;;5072933;28;20058;-42
2023/04/20 03:09:24;;;;;;;3.72;0.90;;;8.10;99.90;;;;;;5072870;28;20053;-42
2023/04/20 03:11:50;;;;;;;4.07;0.82;;;8.20;99.90;;;;;;5072647;28;20048;-42
2023/04/20 03:14:16;;;;;;;2.37;1.00;;;8.20;99.90;;;;;;5072259;28;20043;-42
2023/04/20 03:16:41;;;;;;;2.17;0.67;;;8.20;99.90;;;;;;5072873;28;20123;-42
2023/04/20 03:19:07;;;;;;;3.97;0.80;;;8.30;99.90;;;;;;5072526;28;20579;-42
2023/04/20 03:21:33;;;;;;;2.93;0.70;;;8.30;99.90;;;;;;5039876;28;20480;-42
2023/04/20 03:23:59;;;;;;;4.93;0.87;;;8.30;99.90;;;;;;5072751;28;20047;-42
2023/04/20 03:26:25;;;;;;;2.03;0.85;;;8.40;99.90;;;;;;5072701;28;20052;-42
2023/04/20 03:28:51;;;;;;;4.00;0.80;;;8.40;99.90;;;;;;5056046;28;20048;-42
2023/04/20 03:31:17;;;;;;;1.57;0.70;;;8.40;99.90;;;;;;5072590;28;20495;-42
2023/04/20 03:33:42;;;;;;;2.50;0.70;;;8.50;99.90;;;;;;5072168;28;20081;-42
2023/04/20 03:36:08;;;;;;;2.17;0.93;;;8.50;99.90;;;;;;5072355;28;20199;-42
2023/04/20 03:38:34;;;;;;;2.80;0.60;;;8.50;99.90;;;;;;5055938;28;20045;-42
2023/04/20 03:41:00;;;;;;;2.47;0.77;;;8.50;99.90;;;;;;5056243;28;20479;-42
2023/04/20 03:43:26;;;;;;;2.65;1.25;;;8.50;99.90;;;;;;5072540;28;20127;-42
2023/04/20 03:45:51;;;;;;;2.87;1.53;;;8.50;99.90;;;;;;5055665;28;20103;-43
2023/04/20 03:48:17;;;;;;;3.20;0.90;;;8.50;99.90;;;;;;5072428;28;20052;-42
2023/04/20 03:50:43;;;;;;;2.50;1.20;;;8.50;99.90;;;;;;5072222;28;20040;-42
2023/04/20 03:53:09;;;;;;;2.93;0.90;;;8.50;99.90;;;;;;5072266;28;20048;-43
2023/04/20 03:55:35;;;;;;;3.42;1.13;;;8.50;99.90;;;;;;5072721;28;20377;-42
2023/04/20 03:58:00;;;;;;;2.23;0.73;;;8.50;99.90;;;;;;5072342;28;20101;-42
2023/04/20 04:00:26;;;;;;;2.80;0.90;;;8.50;99.90;;;;;;5072383;28;20472;-42
2023/04/20 04:02:52;;;;;;;5.50;1.30;;;8.50;99.90;;;;;;5072074;28;20402;-42
2023/04/20 04:05:17;;;;;;;2.87;1.00;;;8.40;99.90;;;;;;5056032;28;20044;-42
2023/04/20 04:07:43;;;;;;;2.73;1.03;;;8.40;99.90;;;;;;5055482;28;20509;-42
2023/04/20 04:10:09;;;;;;;3.30;0.70;;;8.40;99.90;;;;;;5055661;28;20507;-42
2023/04/20 04:12:35;;;;;;;2.88;0.90;;;8.40;99.90;;;;;;5072127;28;20399;-41
2023/04/20 04:15:01;;;;;;;3.10;0.70;;;8.40;99.90;;;;;;5055749;28;20044;-42
2023/04/20 04:17:27;;;;;;;2.72;0.80;;;8.40;99.90;;;;;;5055546;28;20053;-46
2023/04/20 04:19:52;;;;;;;3.23;0.97;;;8.40;99.90;;;;;;5055557;28;20048;-42
2023/04/20 04:22:18;;;;;;;1.30;0.60;;;8.40;99.90;;;;;;5055382;28;20487;-42
2023/04/20 04:24:44;;;;;;;2.30;0.70;;;8.30;99.90;;;;;;5055316;28;20095;-42
2023/04/20 04:27:13;;;;;;;3.43;0.80;;;8.30;99.90;;;;;;5057473;28;20052;-42
2023/04/20 04:29:40;;;;;;;1.85;0.65;;;8.30;99.90;;;;;;5075712;28;20131;-42
2023/04/20 04:32:06;;;;;;;2.42;0.80;;;8.20;99.90;;;;;;5042731;28;20365;-43
2023/04/20 04:34:33;;;;;;;3.05;0.60;;;8.20;99.90;;;;;;5092322;28;20052;-42
2023/04/20 04:37:00;;;;;;;2.55;0.60;;;8.20;99.90;;;;;;5074938;28;20052;-42
2023/04/20 04:39:27;;;;;;;1.63;0.60;;;8.10;99.90;;;;;;5075597;28;20049;-42
2023/04/20 04:41:53;;;;;;;3.38;0.98;;;8.10;99.90;;;;;;5075559;28;20041;-42
2023/04/20 04:44:20;;;;;;;2.23;0.80;;;8.10;99.90;;;;;;5075302;28;20157;-42
2023/04/20 04:46:46;;;;;;;;;;;8.00;99.90;;;;;;5075631;28;20287;-42
2023/04/20 04:49:12;;;;;;;2.75;0.80;;;8.10;99.90;;;;;;5058809;28;19924;-43
2023/04/20 04:51:38;;;;;;;3.00;0.70;;;8.00;99.90;;;;;;5042284;28;20119;-42
2023/04/20 04:54:04;;;;;;;2.87;0.90;;;8.10;99.90;;;;;;5058495;28;20097;-41
2023/04/20 04:56:30;;;;;;;3.33;0.90;;;8.00;99.90;;;;;;5075344;28;20052;-42
2023/04/20 04:58:55;;;;;;;2.37;0.77;;;8.00;99.90;;;;;;5075121;28;20311;-42
2023/04/20 05:01:21;;;;;;;2.17;0.83;;;8.00;99.90;;;;;;5041840;28;20051;-42
2023/04/20 05:03:47;;;;;;;2.10;0.67;;;8.00;99.90;;;;;;5075040;28;20048;-42
2023/04/20 05:06:12;;;;;;;1.13;0.50;;;8.00;99.90;;;;;;5075117;28;20472;-42
2023/04/20 05:08:38;;;;;;;2.27;1.33;;;8.00;99.90;;;;;;5058766;28;20483;-43
2023/04/20 05:11:04;;;;;;;3.00;0.83;;;8.00;99.90;;;;;;5075123;28;20063;-42
2023/04/20 05:13:29;;;;;;;2.33;0.87;;;8.00;99.90;;;;;;5041517;28;20036;-42
2023/04/20 05:15:55;;;;;;;1.90;0.73;;;8.00;99.90;;;;;;5058120;28;20105;-42
2023/04/20 05:18:21;;;;;;;3.43;0.87;;;8.00;99.90;;;;;;5074970;28;20052;-42
2023/04/20 05:20:46;;;;;;;2.47;1.03;;;8.00;99.90;;;;;;5041509;28;20041;-41
2023/04/20 05:23:12;;;;;;;3.90;1.50;;;8.00;99.90;;;;;;5058058;28;20052;-41
2023/04/20 05:25:38;;;;;;;2.43;0.90;;;7.90;99.90;;;;;;5074726;28;20106;-40
2023/04/20 05:28:04;;;;;;;2.50;0.80;;;7.80;99.90;;;;;;5074539;28;20048;-40
2023/04/20 05:30:30;;;;;;;3.43;1.00;;;7.70;99.90;;;;;;5074462;28;20052;-41
2023/04/20 05:32:55;;;;;;;3.58;0.90;;;7.60;99.90;;;;;;5074678;28;20249;-40
2023/04/20 05:35:21;;;;;;;3.07;0.90;;;7.50;99.90;;;;;;5058057;28;20531;-40
2023/04/20 05:37:47;;;;;;;6.17;0.80;;;7.40;99.90;;;;;;5057427;28;20048;-39
2023/04/20 05:40:14;;;;;;;1.97;0.93;;;7.40;99.90;;;;;;5074282;28;20072;-40
2023/04/20 05:42:40;;;;;;;3.10;1.20;;;7.40;99.90;;;;;;5074372;28;20380;-39
2023/04/20 05:45:06;;;;;;;4.50;1.15;;;7.40;99.90;;;;;;5074137;28;20047;-39
2023/04/20 05:47:32;;;;;;;2.38;1.00;;;7.40;99.90;;;;;;5073991;28;20098;-40
2023/04/20 05:49:58;;;;;;;2.77;1.03;;;7.40;99.90;;;;;;5074257;28;20144;-39
2023/04/20 05:52:23;;;;;;;3.03;1.48;;;7.40;99.90;;;;;;5073807;28;20398;-39
2023/04/20 05:54:49;;;;;;;3.67;0.93;;;7.50;99.90;;;;;;5075160;28;20040;-39
2023/04/20 05:57:15;;;;;;;1.53;0.70;;;7.50;99.90;;;;;;5040826;28;20075;-40
2023/04/20 05:59:41;;;;;;;3.43;1.00;;;7.50;99.90;;;;;;5057303;28;20128;-40
2023/04/20 06:02:07;;;;;;;1.20;0.60;;;7.50;99.90;;;;;;5074303;28;20087;-39
2023/04/20 06:04:32;;;;;;;4.63;0.90;;;7.50;99.90;;;;;;5057250;28;20451;-39
2023/04/20 06:06:59;;;;;;;1.97;0.80;;;7.50;99.90;;;;;;5090938;28;20052;-39
2023/04/20 06:09:25;;;;;;;2.88;1.08;;;7.50;99.90;;;;;;5074047;28;20454;-39
2023/04/20 06:11:50;;;;;;;1.77;0.65;;;7.50;99.90;;;;;;5073983;28;20106;-40
2023/04/20 06:14:16;;;;;;;2.53;0.80;;;7.50;99.90;;;;;;5056546;28;20048;-40
2023/04/20 06:16:42;;;;;;;2.67;1.00;;;7.50;99.90;;;;;;5073420;28;20130;-39
2023/04/20 06:19:07;;;;;;;2.00;0.80;;;7.40;99.90;;;;;;5074596;28;20541;-39
2023/04/20 06:21:35;;;;;;;3.17;1.00;;;7.30;99.90;;;;;;5057035;28;20131;-40
2023/04/20 06:24:01;;;;;;;4.50;0.93;;;7.30;99.90;;;;;;5074036;28;20119;-39
2023/04/20 06:26:27;;;;;;;4.57;1.17;;;7.20;99.90;;;;;;5073597;28;20052;-39
2023/04/20 06:28:52;;;;;;;3.30;1.08;;;7.10;99.90;;;;;;5074032;28;20048;-39
2023/04/20 06:31:18;;;;;;;1.93;0.90;;;7.10;99.90;;;;;;5073592;28;20395;-39
2023/04/20 06:33:44;;;;;;;3.13;1.25;;;7.00;99.90;;;;;;5073209;28;20067;-39
2023/04/20 06:36:10;;;;;;;4.47;1.30;;;7.00;99.90;;;;;;5072914;28;20056;-39
2023/04/20 06:38:37;;;;;;;;;;;6.90;99.90;;;;;;5073329;28;20097;-39
2023/04/20 06:41:02;;;;;;;2.70;1.00;;;6.80;99.90;;;;;;5056593;28;19921;-39
2023/04/20 06:43:29;;;;;;;3.73;1.73;;;6.80;99.90;;;;;;5072871;28;20040;-39
2023/04/20 06:45:55;;;;;;;2.70;1.15;;;6.70;99.90;;;;;;5073238;28;20124;-39
2023/04/20 06:48:21;;;;;;;2.60;1.13;;;6.70;99.90;;;;;;5056308;28;20136;-39
2023/04/20 06:50:48;;;;;;;3.30;1.47;;;6.60;99.90;;;;;;5039502;28;20063;-39
2023/04/20 06:53:14;;;;;;;2.33;1.00;;;6.60;99.90;;;;;;5073074;28;20040;-39
2023/04/20 06:55:39;;;;;;;2.23;0.80;;;6.70;99.90;;;;;;5073895;28;20065;-39
2023/04/20 06:58:05;;;;;;;1.87;0.90;;;6.60;99.90;;;;;;5073726;28;20367;-39
2023/04/20 07:00:31;;;;;;;2.80;1.10;;;6.60;99.90;;;;;;5072769;28;20467;-39
2023/04/20 07:02:56;;;;;;;3.20;1.40;;;6.70;99.90;;;;;;5072833;28;20048;-39
2023/04/20 07:05:22;;;;;;;3.10;0.80;;;6.70;99.90;;;;;;5073076;28;20044;-39
2023/04/20 07:07:48;;;;;;;4.43;1.30;;;6.70;99.90;;;;;;5056128;28;20060;-39
2023/04/20 07:10:15;;;;;;;3.80;1.60;;;6.60;99.90;;;;;;5072737;28;20287;-39
2023/04/20 07:12:42;;;;;;;4.65;1.33;;;6.60;99.90;;;;;;5055674;28;20102;-39
2023/04/20 07:15:08;;;;;;;3.08;1.10;;;6.60;99.90;;;;;;5072764;28;20293;-40
2023/04/20 07:17:34;;;;;;;2.83;1.02;;;6.60;99.90;;;;;;5072781;28;20044;-39
2023/04/20 07:20:07;;;;;;;5.13;1.08;;;6.50;99.90;;;;;;5073634;28;20036;-39
2023/04/20 07:22:37;;;;;;;3.22;1.30;;;6.50;99.90;;;;;;5072747;28;20059;-39
2023/04/20 07:25:05;;;;;;;4.45;1.30;;;6.50;99.90;;;;;;5055875;28;20511;-39
2023/04/20 07:27:34;;;;;;;3.90;1.40;;;6.50;99.90;;;;;;5089225;28;20040;-39
2023/04/20 07:30:00;;;;;;;3.10;1.10;;;6.50;99.90;;;;;;5055889;28;20133;-39
2023/04/20 07:32:26;;;;;;;4.73;1.47;;;6.50;99.90;;;;;;5056483;28;20090;-39
2023/04/20 07:34:52;;;;;;;4.20;1.30;;;6.50;99.90;;;;;;5072457;28;20055;-39
2023/04/20 07:37:18;;;;;;;3.20;1.23;;;6.50;99.90;;;;;;5072123;28;20060;-39
2023/04/20 07:39:43;;;;;;;4.37;1.67;;;6.50;99.90;;;;;;5072328;28;20132;-39
2023/04/20 07:42:09;;;;;;;2.47;1.00;;;6.60;99.90;;;;;;5072433;28;20056;-39
2023/04/20 07:44:35;;;;;;;3.40;1.23;;;6.60;99.90;;;;;;5072883;28;20396;-39
2023/04/20 07:47:02;;;;;;;4.18;1.70;;;6.60;99.90;;;;;;5055526;28;20041;-39
2023/04/20 07:49:28;;;;;;;7.72;1.58;;;6.60;99.90;;;;;;5055806;28;20389;-39
2023/04/20 07:51:54;;;;;;;5.00;1.47;;;6.70;99.90;;;;;;5055675;28;20098;-39
2023/04/20 07:54:19;;;;;;;3.47;1.33;;;6.70;99.90;;;;;;5055408;28;20045;-39
2023/04/20 07:56:45;;;;;;;3.20;1.37;;;6.70;99.90;;;;;;5055392;28;20071;-39
2023/04/20 07:59:11;;;;;;;3.93;1.47;;;6.70;99.90;;;;;;5055663;28;20049;-39
2023/04/20 08:01:36;;;;;;;3.87;1.30;;;6.70;99.90;;;;;;5074589;28;20544;-39
2023/04/20 08:04:02;;;;;;;3.33;1.47;;;6.70;99.90;;;;;;5076291;28;20048;-39
2023/04/20 08:06:28;;;;;;;3.20;1.40;;;6.70;99.90;;;;;;5076012;28;20109;-39
2023/04/20 08:08:54;;;;;;;3.93;1.73;;;6.60;99.90;;;;;;5059315;28;20040;-39
2023/04/20 08:11:20;;;;;;;3.27;1.20;;;6.60;99.90;;;;;;5059498;28;20052;-39
2023/04/20 08:13:46;;;;;;;4.35;1.40;;;6.60;99.90;;;;;;5075855;28;20535;-39
2023/04/20 08:16:12;;;;;;;3.70;1.30;;;6.60;99.90;;;;;;5076994;28;20182;-39
2023/04/20 08:18:37;;;;;;;4.17;1.20;;;6.60;99.90;;;;;;5059322;28;20088;-39
2023/04/20 08:21:03;;;;;;;4.83;1.60;;;6.70;99.90;;;;;;5058941;28;20044;-39
2023/04/20 08:23:29;;;;;;;3.87;1.53;;;6.70;99.90;;;;;;5059020;28;20494;-41
2023/04/20 08:25:55;;;;;;;4.50;1.53;;;6.70;99.90;;;;;;5042393;28;20041;-39
2023/04/20 08:28:21;;;;;;;3.83;1.37;;;6.70;99.90;;;;;;5092495;28;20067;-39
2023/04/20 08:30:47;;;;;;;3.38;1.80;;;6.70;99.90;;;;;;5075744;28;20508;-39
2023/04/20 08:33:13;;;;;;;4.40;1.80;;;6.70;99.90;;;;;;5075609;28;20048;-39
2023/04/20 08:35:38;;;;;;;3.47;1.30;;;6.70;99.90;;;;;;5075487;28;20484;-39
2023/04/20 08:38:04;;;;;;;4.33;1.70;;;6.70;99.90;;;;;;5059066;28;20129;-39
2023/04/20 08:40:31;;;;;;;3.90;1.40;;;6.70;99.90;;;;;;5075096;28;20048;-39
2023/04/20 08:42:58;;;;;;;3.95;1.67;;;6.70;99.90;;;;;;5075750;28;20044;-39
2023/04/20 08:45:25;;;;;;;3.97;1.50;;;6.70;99.90;;;;;;5075418;28;20056;-40
2023/04/20 08:47:51;;;;;;;5.80;1.48;;;6.60;99.90;;;;;;5075831;28;20123;-40
2023/04/20 08:50:19;;;;;;;4.50;1.77;;;6.70;99.90;;;;;;5041983;28;20052;-40
2023/04/20 08:52:44;;;;;;;4.65;1.73;;;6.60;99.90;;;;;;5075126;28;20514;-40
2023/04/20 08:55:17;;;;;;;4.17;1.90;;;6.70;99.90;;;;;;5059062;28;20040;-39
2023/04/20 08:57:43;;;;;;;4.93;2.03;;;6.70;99.90;;;;;;5092390;28;20083;-39
2023/04/20 09:00:10;;;;;;;6.77;1.73;;;6.80;99.90;;;;;;5058592;28;20141;-39
2023/04/20 09:02:47;;;;;;;6.20;1.95;;;6.90;99.90;;;;;;5091978;28;20568;-39
2023/04/20 09:05:13;;;;;;;6.60;1.77;;;7.00;99.90;;;;;;5075145;28;20047;-39
2023/04/20 09:07:38;;;;;;;5.90;1.87;;;7.00;99.90;;;;;;5074851;28;20067;-39
2023/04/20 09:10:04;;;;;;;4.63;2.03;;;7.10;99.90;;;;;;5075663;28;20044;-39
2023/04/20 09:12:40;;;;;;;3.70;1.73;;;7.10;99.90;;;;;;5074572;28;20094;-39
2023/04/20 09:15:06;;;;;;;4.13;1.70;;;7.20;99.90;;;;;;5074757;28;20529;-39
2023/04/20 09:17:34;;;;;;;5.00;1.70;;;7.20;99.90;;;;;;5074811;28;20053;-39
2023/04/20 09:20:00;;;;;;;4.18;1.70;;;7.30;99.90;;;;;;5075454;28;20055;-39
2023/04/20 09:22:36;;;;;;;4.03;1.70;;;7.30;99.90;;;;;;5074729;28;20418;-39
2023/04/20 09:25:16;;;;;;;5.78;1.98;;;7.30;99.90;;;;;;5058090;28;20059;-39
2023/04/20 09:27:41;;;;;;;4.72;1.80;;;7.40;99.90;;;;;;5074469;28;20055;-39
2023/04/20 09:30:08;;;;;;;5.60;2.07;;;7.40;99.90;;;;;;5075435;28;20201;-39
2023/04/20 09:32:34;;;;;;;4.43;1.92;;;7.40;99.90;;;;;;5074388;28;20091;-39
2023/04/20 09:35:00;;;;;;;3.40;1.77;;;7.50;99.90;;;;;;5057517;28;20051;-39
2023/04/20 09:37:26;;;;;;;3.60;1.67;;;7.50;99.90;;;;;;5074250;28;20295;-39
2023/04/20 09:39:56;;;;;;;3.97;1.77;;;7.60;99.90;;;;;;5058119;28;20048;-39
2023/04/20 09:42:26;;;;;;;6.32;2.35;;;7.60;99.90;;;;;;5074563;28;20097;-39
2023/04/20 09:44:52;;;;;;;5.22;1.83;;;7.60;99.90;;;;;;5074159;28;20052;-39
2023/04/20 09:47:19;;;;;;;;;;;7.60;99.90;;;;;;5074448;28;20057;-39
2023/04/20 09:49:48;;;;;;;3.58;1.75;;;7.60;99.90;;;;;;5074150;28;19927;-39
2023/04/20 09:52:17;;;;;;;4.80;2.08;;;7.70;99.90;;;;;;5073887;28;20407;-39
2023/04/20 09:54:44;;;;;;;3.97;1.90;;;7.80;99.90;;;;;;5073705;28;20040;-40
2023/04/20 09:57:12;;;;;;;5.63;1.80;;;7.90;99.90;;;;;;5074160;28;20141;-39
2023/04/20 09:59:42;;;;;;;5.10;1.77;;;7.90;99.90;;;;;;5073965;28;20186;-39
2023/04/20 10:02:10;;;;;;;4.78;2.25;;;7.90;99.90;;;;;;5057373;28;20052;-39
2023/04/20 10:04:36;;;;;;;4.18;1.90;;;7.90;99.90;;;;;;5057042;28;20051;-39
2023/04/20 10:07:05;;;;;;;6.20;2.07;;;7.90;99.90;;;;;;5057241;28;20045;-39
2023/04/20 10:09:33;;;;;;;5.47;2.20;;;7.90;99.90;;;;;;5073555;28;20487;-38
2023/04/20 10:12:07;;;;;;;6.13;2.22;;;8.00;99.90;;;;;;5057140;28;20091;-39
2023/04/20 10:14:34;;;;;;;4.13;1.75;;;8.10;99.90;;;;;;5075267;28;20080;-39
2023/04/20 10:17:08;;;;;;;6.10;1.95;;;8.20;99.90;;;;;;5040652;28;20051;-39
2023/04/20 10:19:44;;;;;;;5.95;2.58;;;8.30;99.90;;;;;;5073415;28;20552;-38
2023/04/20 10:22:12;;;;;;;4.93;2.08;;;8.30;99.90;;;;;;5073427;28;20040;-38
2023/04/20 10:24:38;;;;;;;4.70;2.08;;;8.30;99.90;;;;;;5072562;28;20135;-39
2023/04/20 10:27:16;;;;;;;4.32;2.08;;;8.20;99.90;;;;;;5073453;28;20106;-39
2023/04/20 10:29:42;;;;;;;4.63;2.03;;;8.20;99.90;;;;;;5073877;28;20051;-38
2023/04/20 10:32:08;;;;;;;4.53;2.17;;;8.20;99.90;;;;;;5074379;28;20060;-38
2023/04/20 10:34:35;;;;;;;4.87;2.27;;;8.10;99.90;;;;;;5072802;28;20442;-38
2023/04/20 10:37:08;;;;;;;5.65;2.40;;;8.00;99.90;;;;;;5072889;28;20056;-39
2023/04/20 10:39:36;;;;;;;6.50;2.05;;;8.00;99.90;;;;;;5073180;28;20045;-38
2023/04/20 10:42:02;;;;;;;5.07;2.20;;;8.10;99.90;;;;;;5073142;28;20097;-38
2023/04/20 10:44:29;;;;;;;4.47;2.28;;;8.00;99.90;;;;;;5056633;28;20056;-38
2023/04/20 10:46:56;;;;;;;5.00;2.15;;;8.00;99.90;;;;;;5073237;28;20128;-38
2023/04/20 10:49:29;;;;;;;5.15;2.10;;;8.00;99.90;;;;;;5073063;28;20048;-38
2023/04/20 10:51:55;;;;;;;5.07;2.15;;;7.90;99.90;;;;;;5072898;28;20052;-39
2023/04/20 10:54:21;;;;;;;4.83;2.23;;;7.90;99.90;;;;;;5056849;28;20101;-39
2023/04/20 10:56:49;;;;;;;5.10;1.90;;;7.90;99.90;;;;;;5056443;28;20036;-38
2023/04/20 10:59:19;;;;;;;5.68;2.72;;;7.90;99.90;;;;;;5072885;28;20053;-39
2023/04/20 11:01:45;;;;;;;5.55;2.42;;;7.90;99.90;;;;;;5073929;28;20044;-38
2023/04/20 11:04:12;;;;;;;5.10;1.98;;;7.90;99.90;;;;;;5072661;28;20048;-38
2023/04/20 11:06:43;;;;;;;7.10;2.92;;;8.00;99.90;;;;;;5056170;28;20506;-39
2023/04/20 11:09:25;;;;;;;5.38;2.40;;;8.00;99.90;;;;;;5072930;28;20049;-38
2023/04/20 11:12:04;;;;;;;5.40;2.20;;;8.10;99.90;;;;;;5056233;28;20056;-38
2023/04/20 11:14:36;;;;;;;5.82;2.63;;;8.10;99.90;;;;;;5055927;28;20372;-39
2023/04/20 11:17:02;;;;;;;6.30;2.30;;;8.20;99.90;;;;;;5056324;28;20048;-39
2023/04/20 11:19:30;;;;;;;5.35;2.65;;;8.20;99.90;;;;;;5055710;28;20067;-39
2023/04/20 11:21:56;;;;;;;7.22;2.53;;;8.10;99.90;;;;;;5072631;28;20506;-39
2023/04/20 11:24:24;;;;;;;6.50;2.50;;;8.10;99.90;;;;;;5055982;28;20512;-39
2023/04/20 11:26:54;;;;;;;6.60;3.30;;;8.20;99.90;;;;;;5072531;28;20371;-38
2023/04/20 11:29:38;;;;;;;6.40;2.88;;;8.20;99.90;;;;;;5072384;28;20088;-39
2023/04/20 11:32:09;;;;;;;5.90;2.63;;;8.20;99.90;;;;;;5055915;28;20141;-38
2023/04/20 11:34:37;;;;;;;8.07;3.22;;;8.20;99.90;;;;;;5055423;28;20098;-39
2023/04/20 11:37:07;;;;;;;5.88;2.67;;;8.20;99.90;;;;;;5061738;28;20056;-38
2023/04/20 11:39:33;;;;;;;7.10;3.05;;;8.20;99.90;;;;;;5079116;28;20060;-43
2023/04/20 11:41:59;;;;;;;6.90;3.00;;;8.20;99.90;;;;;;5062482;28;20073;-38
2023/04/20 11:44:25;;;;;;;6.63;2.87;;;8.20;99.90;;;;;;5062496;28;20049;-39
2023/04/20 11:46:56;;;;;;;6.35;2.90;;;8.30;99.90;;;;;;5096012;28;20729;-39
2023/04/20 11:49:23;;;;;;;7.22;3.13;;;8.30;99.90;;;;;;5079394;28;20050;-38
2023/04/20 11:51:49;;;;;;;6.30;3.47;;;8.40;99.90;;;;;;5078947;28;20211;-39
2023/04/20 11:54:17;;;;;;;6.00;2.97;;;8.40;99.90;;;;;;5078768;28;20471;-39
2023/04/20 11:56:44;;;;;;;6.60;3.58;;;8.50;99.90;;;;;;5079669;28;20048;-39
2023/04/20 11:59:10;;;;;;;;;;;8.50;99.90;;;;;;5079434;28;20128;-39
2023/04/20 12:01:36;;;;;;;7.22;3.28;;;8.50;99.90;;;;;;5078903;28;19924;-39
2023/04/20 12:04:03;;;;;;;10.30;3.97;;;8.50;99.90;;;;;;5078997;28;20391;-38
2023/04/20 12:06:30;;;;;;;;;;;8.40;99.90;;;;;;5062534;28;20067;-39
2023/04/20 12:08:56;;;;;;;7.32;3.40;;;8.50;99.90;;;;;;5095434;28;20436;-39
2023/04/20 12:11:22;;;;;;;8.63;3.65;;;8.60;99.90;;;;;;5078932;28;20360;-39
2023/04/20 12:13:48;;;;;;;5.67;2.90;;;8.80;99.90;;;;;;5078716;28;20048;-39
2023/04/20 12:16:14;;;;;;;6.70;3.53;;;9.00;99.90;;;;;;5062177;28;20044;-39
2023/04/20 12:18:40;;;;;;;7.03;3.53;;;9.30;99.90;;;;;;5078720;28;20123;-39
2023/04/20 12:21:06;;;;;;;7.50;3.50;;;9.60;99.90;;;;;;5062115;28;20417;-39
2023/04/20 12:23:32;;;;;;;8.05;3.78;;;9.90;99.90;;;;;;5095440;28;20041;-40
2023/04/20 12:25:58;;;;;;;6.07;3.33;;;10.00;99.90;;;;;;5078745;28;20197;-39
2023/04/20 12:28:24;;;;;;;6.77;3.20;;;9.90;99.90;;;;;;5062088;28;20083;-39
2023/04/20 12:30:50;;;;;;;6.10;2.73;;;9.80;99.90;;;;;;5079625;28;20051;-39
2023/04/20 12:33:16;;;;;;;7.50;3.20;;;9.90;99.90;;;;;;5078733;28;20052;-39
2023/04/20 12:35:43;;;;;;;5.77;2.90;;;9.90;99.90;;;;;;5079405;28;20115;-39
2023/04/20 12:38:09;;;;;;;5.50;2.90;;;9.80;99.90;;;;;;5078684;28;20052;-39
2023/04/20 12:40:35;;;;;;;6.50;3.07;;;9.70;99.90;;;;;;5078556;28;20459;-39
2023/04/20 12:43:00;;;;;;;6.10;3.23;;;9.70;99.90;;;;;;5078961;28;20127;-39
2023/04/20 12:45:26;;;;;;;6.73;2.83;;;9.70;99.90;;;;;;5078750;28;20395;-39
2023/04/20 12:47:52;;;;;;;7.00;3.40;;;9.70;99.90;;;;;;5058922;28;20043;-39
2023/04/20 12:50:17;;;;;;;4.93;2.70;;;9.70;99.90;;;;;;5075478;28;20052;-39
2023/04/20 12:52:43;;;;;;;6.33;2.70;;;9.70;99.90;;;;;;5075418;28;20509;-39
2023/04/20 12:55:10;;;;;;;7.50;3.33;;;9.80;99.90;;;;;;5058369;28;20049;-39